ADDS METAR Data INFO
IDs: Format: Raw Decoded Include TAF

Data at: 0106 UTC 24 Jun 2018

KAWG 240055Z AUTO 00000KT 10SM FEW060 SCT075 23/21 A2981 RMK AO2
KAWG 240035Z AUTO 22004KT 10SM FEW037 BKN060 BKN080 24/20 A2981 RMK AO2
KAWG 240015Z AUTO 00000KT 10SM BKN037 BKN055 BKN065 24/19 A2980 RMK AO2
KAWG 232355Z AUTO 00000KT 10SM FEW039 SCT065 SCT075 24/19 A2980 RMK AO2
KAWG 232335Z AUTO 00000KT 10SM FEW040 BKN065 BKN075 24/18 A2980 RMK AO2
KAWG 232315Z AUTO 00000KT 10SM FEW065 24/19 A2980 RMK AO2
KAWG 232255Z AUTO VRB03KT 10SM CLR 25/18 A2980 RMK AO2
KAWG 232235Z AUTO 03004KT 10SM CLR 24/18 A2979 RMK AO2
KAWG 232215Z AUTO 01005KT 10SM FEW038 FEW070 24/19 A2980 RMK AO2
KAWG 232155Z AUTO 00000KT 10SM CLR 25/18 A2980 RMK AO2
KAWG 232135Z AUTO 00000KT 10SM CLR 25/18 A2980 RMK AO2
KAWG 232115Z AUTO VRB03KT 10SM FEW036 FEW043 25/18 A2980 RMK AO2
KAWG 232055Z AUTO 00000KT 10SM FEW036 FEW043 FEW055 24/17 A2980 RMK AO2
KAWG 232035Z AUTO 00000KT 10SM FEW033 FEW040 SCT048 25/17 A2980 RMK AO2
KAWG 232015Z AUTO 00000KT 10SM SCT032 BKN039 BKN048 24/18 A2980 RMK AO2
KAWG 231955Z AUTO VRB05G10KT 10SM SCT034 25/19 A2980 RMK AO2
KAWG 231935Z AUTO 24007KT 10SM CLR 24/20 A2980 RMK AO2
KAWG 231915Z AUTO 23005KT 10SM FEW060 24/19 A2980 RMK AO2
KAWG 231855Z AUTO 24007KT 10SM FEW060 23/19 A2981 RMK AO2
KAWG 231835Z AUTO 25008KT 10SM SCT060 23/19 A2981 RMK AO2
KAWG 231815Z AUTO 25007KT 10SM FEW050 BKN060 23/19 A2982 RMK AO2
KAWG 231755Z AUTO 26007KT 10SM FEW038 FEW044 BKN050 22/18 A2981 RMK AO2
KAWG 231735Z AUTO 26007KT 10SM SCT030 BKN038 BKN044 22/18 A2981 RMK AO2
KAWG 231715Z AUTO 25007KT 10SM BKN028 BKN032 BKN040 22/19 A2981 RMK AO2
KAWG 231655Z AUTO 00000KT 10SM BKN031 23/18 A2981 RMK AO2
KAWG 231635Z AUTO VRB03KT 10SM BKN031 23/18 A2981 RMK AO2
KAWG 231615Z AUTO 00000KT 10SM FEW031 22/17 A2981 RMK AO2
KAWG 231555Z AUTO 00000KT CLR 22/17 A2980 RMK AO2
KAWG 231535Z AUTO 00000KT 10SM CLR 22/17 A2980 RMK AO2
KAWG 231515Z AUTO 00000KT 10SM CLR 22/18 A2980 RMK AO2
KAWG 231455Z AUTO 00000KT 10SM CLR 22/17 A2980 RMK AO2
KAWG 231435Z AUTO 01004KT 10SM CLR 21/16 A2980 RMK AO2
KAWG 231415Z AUTO 02004KT 10SM CLR 21/17 A2980 RMK AO2
KAWG 231355Z AUTO 03005KT 10SM CLR 21/17 A2981 RMK AO2
KAWG 231335Z AUTO 04006G12KT 10SM CLR 20/18 A2979 RMK AO2
KAWG 231315Z AUTO 02006KT 10SM FEW050 20/18 A2978 RMK AO2
KAWG 231255Z AUTO 02004KT 10SM BKN050 20/19 A2980 RMK AO2
KAWG 231235Z AUTO 00000KT 10SM FEW033 OVC050 18/18 A2980 RMK AO2
KAWG 231215Z AUTO 00000KT 10SM BKN033 OVC050 18/17 A2980 RMK AO2
KAWG 231155Z AUTO 00000KT 9SM OVC033 17/17 A2980 RMK AO2
KAWG 231135Z AUTO 00000KT 6SM BR OVC033 17/17 A2980 RMK AO2
KAWG 231115Z AUTO 00000KT 9SM SCT032 SCT037 OVC050 17/16 A2979 RMK AO2
KAWG 231055Z AUTO 00000KT 9SM BKN046 16/16 A2979 RMK AO2
KAWG 231035Z AUTO 33004KT 10SM SCT039 16/16 A2978 RMK AO2
KAWG 231015Z AUTO 00000KT 10SM SCT037 17/17 A2977 RMK AO2
KAWG 230955Z AUTO 00000KT 10SM CLR 17/17 A2977 RMK AO2
KAWG 230935Z AUTO 00000KT 10SM SCT034 SCT041 BKN047 18/18 A2977 RMK AO2
KAWG 230915Z AUTO 35003KT 10SM SCT027 OVC032 18/18 A2977 RMK AO2
KAWG 230855Z AUTO 03005KT 10SM OVC026 18/18 A2977 RMK AO2
KAWG 230835Z AUTO 02005KT 10SM FEW022 OVC029 18/18 A2978 RMK AO2
KAWG 230815Z AUTO 36004KT 5SM BR FEW016 OVC028 18/18 A2979 RMK AO2
KAWG 230755Z AUTO 35004KT 10SM OVC029 18/18 A2979 RMK AO2
KAWG 230735Z AUTO 34003KT 10SM OVC028 18/18 A2979 RMK AO2
KAWG 230715Z AUTO 33004KT 10SM OVC030 18/18 A2980 RMK AO2
KAWG 230655Z AUTO 34004KT 10SM OVC030 18/18 A2981 RMK AO2
KAWG 230635Z AUTO 00000KT 10SM OVC033 18/18 A2981 RMK AO2
KAWG 230615Z AUTO 00000KT 10SM BKN033 OVC041 18/18 A2980 RMK AO2
KAWG 230555Z AUTO 00000KT 10SM BKN029 BKN035 OVC042 18/18 A2980 RMK AO2
KAWG 230535Z AUTO 00000KT 10SM OVC028 18/18 A2980 RMK AO2
KAWG 230515Z AUTO 04005KT 10SM OVC028 18/18 A2977 RMK AO2
KAWG 230455Z AUTO 03004KT 10SM OVC026 19/18 A2978 RMK AO2
KAWG 230435Z AUTO 05006KT 10SM SCT026 OVC048 19/18 A2977 RMK AO2
KAWG 230415Z AUTO 00000KT 10SM SCT030 OVC047 19/18 A2978 RMK AO2
KAWG 230355Z AUTO 00000KT 10SM OVC031 19/18 A2978 RMK AO2
KAWG 230335Z AUTO 00000KT 10SM OVC033 19/18 A2979 RMK AO2
KAWG 230315Z AUTO 02005KT 10SM BKN034 OVC055 18/18 A2979 RMK AO2
KAWG 230255Z AUTO 00000KT 10SM FEW032 SCT038 BKN055 18/18 A2978 RMK AO2
KAWG 230235Z AUTO 02004KT 10SM FEW031 OVC050 19/18 A2978 RMK AO2
KAWG 230215Z AUTO 04007KT 10SM FEW041 SCT050 OVC055 19/18 A2978 RMK AO2
KAWG 230155Z AUTO 03011KT 10SM SCT040 OVC055 20/18 A2977 RMK AO2
KAWG 230135Z AUTO 03007KT 10SM FEW043 OVC050 20/18 A2977 RMK AO2
KAWG 230115Z AUTO 05006KT 10SM BKN044 OVC050 21/19 A2977 RMK AO2
KAWG 230055Z AUTO 04007KT 10SM OVC047 21/19 A2977 RMK AO2
KAWG 230035Z AUTO 04005KT 10SM SCT030 SCT037 OVC044 21/20 A2977 RMK AO2
KAWG 230015Z AUTO 01003KT 10SM SCT027 SCT038 BKN048 21/20 A2977 RMK AO2
KAWG 222355Z AUTO 36004KT 10SM FEW025 SCT048 SCT055 22/20 A2978 RMK AO2
KAWG 222335Z AUTO 35005KT 10SM FEW038 BKN048 BKN060 22/20 A2977 RMK AO2
KAWG 222315Z AUTO 35005KT 10SM FEW036 SCT048 BKN065 22/20 A2977 RMK AO2
KAWG 222255Z AUTO 36005KT 10SM SCT048 BKN065 21/19 A2977 RMK AO2
KAWG 222235Z AUTO 35006KT 10SM BKN047 BKN060 21/19 A2978 RMK AO2
KAWG 222215Z AUTO 36005KT 10SM OVC046 21/19 A2978 RMK AO2
KAWG 222155Z AUTO 35006KT 10SM OVC042 21/19 A2979 RMK AO2
KAWG 222135Z AUTO 02006KT 10SM FEW026 OVC039 20/19 A2979 RMK AO2
KAWG 222115Z AUTO 02008KT 10SM SCT026 OVC040 21/19 A2979 RMK AO2
KAWG 222055Z AUTO 02005KT 10SM SCT031 OVC039 21/19 A2979 RMK AO2
KAWG 222035Z AUTO 01004KT 10SM FEW023 OVC029 20/19 A2980 RMK AO2
KAWG 222015Z AUTO 01005KT 10SM OVC022 20/19 A2980 RMK AO2
KAWG 221955Z AUTO 02006KT 10SM OVC021 20/19 A2980 RMK AO2
KAWG 221935Z AUTO 04007KT 10SM OVC019 19/18 A2980 RMK AO2
KAWG 221915Z AUTO 03005G11KT 8SM OVC015 19/19 A2980 RMK AO2
KAWG 221855Z AUTO 03009KT 10SM OVC014 19/19 A2980 RMK AO2
KAWG 221835Z AUTO 01008KT 10SM OVC015 19/19 A2980 RMK AO2
KAWG 221815Z AUTO 01006KT 9SM OVC015 18/18 A2981 RMK AO2
KAWG 221755Z AUTO 02008KT 10SM OVC015 18/18 A2981 RMK AO2
KAWG 221735Z AUTO 02010KT 9SM BKN013 BKN017 18/18 A2981 RMK AO2
KAWG 221715Z AUTO 02011KT 9SM BKN013 BKN020 18/18 A2981 RMK AO2
KAWG 221655Z AUTO 03012KT 7SM FEW008 BKN014 BKN019 18/18 A2982 RMK AO2
KAWG 221635Z AUTO 04011G17KT 7SM BKN014 18/18 A2982 RMK AO2
KAWG 221615Z AUTO 04014KT 5SM BR OVC013 18/18 A2981 RMK AO2
KAWG 221555Z AUTO 04011G17KT 10SM OVC014 18/18 A2981 RMK AO2
KAWG 221535Z AUTO 04011KT 10SM OVC014 18/18 A2981 RMK AO2
KAWG 221515Z AUTO 03011G18KT 10SM OVC013 18/18 A2980 RMK AO2
KAWG 221455Z AUTO 03014KT 10SM BKN013 BKN018 18/18 A2980 RMK AO2
KAWG 221435Z AUTO 04011G17KT 10SM FEW008 BKN014 18/18 A2980 RMK AO2
KAWG 221415Z AUTO 03012KT 6SM BR SCT007 BKN014 18/17 A2979 RMK AO2
KAWG 221355Z AUTO 03008G17KT 1 3/4SM BR BKN006 BKN013 17/17 A2980 RMK AO2
KAWG 221335Z AUTO 03012G17KT 9SM BKN011 18/17 A2979 RMK AO2
KAWG 221315Z AUTO 03012KT 9SM OVC012 18/17 A2980 RMK AO2